Time;durP1;ratioP1;P1;durP2;ratioP2;P2;SDS_P1;SDS_P2;PMS_P1;PMS_P2;Temp;Humidity;BMP_temperature;BMP_pressure;BME280_temperature;BME280_humidity;BME280_pressure;Samples;Min_cycle;Max_cycle;Signal;HPM_P1;HPM_P2
2022/04/20 00:04:24;;;;;;;;;;;;;;;10.75;53.77246;101810;;;;-75
2022/04/20 00:09:26;;;;;;;;;;;;;;;10.71;53.95801;101809.6;;;;-76
2022/04/20 00:14:24;;;;;;;;;;;;;;;10.67;54.0752;101810.8;;;;-75
2022/04/20 00:17:30;;;;;;;8.3;3.2;;;;;;;;;;;;;-75
2022/04/20 00:19:24;;;;;;;;;;;;;;;10.62;53.6123;101810.4;;;;-76
2022/04/20 00:24:24;;;;;;;;;;;;;;;10.58;53.7959;101814;;;;-74
2022/04/20 00:29:24;;;;;;;;;;;;;;;10.54;53.65625;101814.2;;;;-75
2022/04/20 00:34:24;;;;;;;;;;;;;;;10.49;53.4502;101812;;;;-76
2022/04/20 00:39:24;;;;;;;;;;;;;;;10.43;53.56543;101813.3;;;;-76
2022/04/20 00:44:24;;;;;;;;;;;;;;;10.38;53.48145;101816.7;;;;-74
2022/04/20 00:47:33;;;;;;;7.2;2.9;;;;;;;;;;;;;-74
2022/04/20 00:49:25;;;;;;;;;;;;;;;10.33;53.59766;101814.1;;;;-77
2022/04/20 00:54:24;;;;;;;;;;;;;;;10.28;53.625;101817.3;;;;-75
2022/04/20 00:59:25;;;;;;;;;;;;;;;10.26;53.41113;101820.7;;;;-74
2022/04/20 01:04:24;;;;;;;;;;;;;;;10.2;53.44824;101818.1;;;;-75
2022/04/20 01:09:24;;;;;;;;;;;;;;;10.15;53.5752;101824.1;;;;-75
2022/04/20 01:14:24;;;;;;;;;;;;;;;10.09;53.68945;101824.5;;;;-74
2022/04/20 01:17:32;;;;;;;4.9;2.7;;;;;;;;;;;;;-75
2022/04/20 01:19:24;;;;;;;;;;;;;;;10.06;53.78809;101821;;;;-75
2022/04/20 01:24:24;;;;;;;;;;;;;;;10;53.8252;101816.8;;;;-75
2022/04/20 01:29:25;;;;;;;;;;;;;;;9.97;53.58691;101823.5;;;;-75
2022/04/20 01:34:24;;;;;;;;;;;;;;;9.93;53.63867;101819.2;;;;-75
2022/04/20 01:39:24;;;;;;;;;;;;;;;9.88;53.53223;101818.1;;;;-76
2022/04/20 01:44:24;;;;;;;;;;;;;;;9.83;53.39063;101819.4;;;;-74
2022/04/20 01:47:33;;;;;;;6.8;2.8;;;;;;;;;;;;;-75
2022/04/20 01:49:24;;;;;;;;;;;;;;;9.76;53.59473;101820;;;;-76
2022/04/20 01:54:24;;;;;;;;;;;;;;;9.7;53.73242;101822.6;;;;-75
2022/04/20 01:59:24;;;;;;;;;;;;;;;9.66;53.44922;101823.8;;;;-74
2022/04/20 02:04:24;;;;;;;;;;;;;;;9.61;53.29785;101825.6;;;;-76
2022/04/20 02:09:24;;;;;;;;;;;;;;;9.56;53.29199;101831.5;;;;-75
2022/04/20 02:14:26;;;;;;;;;;;;;;;9.49;53.31641;101830.2;;;;-75
2022/04/20 02:17:39;;;;;;;4.9;2.6;;;;;;;;;;;;;-75
2022/04/20 02:19:25;;;;;;;;;;;;;;;9.45;53.34668;101832.4;;;;-77
2022/04/20 02:24:27;;;;;;;;;;;;;;;9.4;53.36133;101828.1;;;;-75
2022/04/20 02:29:24;;;;;;;;;;;;;;;9.35;53.13281;101821.8;;;;-75
2022/04/20 02:34:24;;;;;;;;;;;;;;;9.28;53.31348;101815.8;;;;-74
2022/04/20 02:39:24;;;;;;;;;;;;;;;9.22;53.26172;101820.3;;;;-74
2022/04/20 02:44:24;;;;;;;;;;;;;;;9.16;53.33203;101816.9;;;;-74
2022/04/20 02:47:34;;;;;;;4.9;2.6;;;;;;;;;;;;;-79
2022/04/20 02:49:24;;;;;;;;;;;;;;;9.11;53.19238;101825.5;;;;-81
2022/04/20 02:54:27;;;;;;;;;;;;;;;9.07;53.20898;101826.4;;;;-81
2022/04/20 02:59:24;;;;;;;;;;;;;;;9.02;53.08008;101826.8;;;;-81
2022/04/20 03:04:26;;;;;;;;;;;;;;;8.99;53.07715;101832.4;;;;-81
2022/04/20 03:09:24;;;;;;;;;;;;;;;8.94;52.90527;101833.9;;;;-81
2022/04/20 03:14:24;;;;;;;;;;;;;;;8.89;52.91992;101832.2;;;;-82
2022/04/20 03:17:38;;;;;;;6;2.5;;;;;;;;;;;;;-84
2022/04/20 03:19:24;;;;;;;;;;;;;;;8.84;52.92578;101834.8;;;;-81
2022/04/20 03:24:24;;;;;;;;;;;;;;;8.8;52.89844;101838.5;;;;-82
2022/04/20 03:29:24;;;;;;;;;;;;;;;8.73;52.85742;101838.4;;;;-81
2022/04/20 03:34:24;;;;;;;;;;;;;;;8.67;52.88379;101836.2;;;;-82
2022/04/20 03:39:25;;;;;;;;;;;;;;;8.63;52.99902;101841;;;;-81
2022/04/20 03:44:24;;;;;;;;;;;;;;;8.58;52.94922;101840.6;;;;-81
2022/04/20 03:47:36;;;;;;;4.5;2.6;;;;;;;;;;;;;-81
2022/04/20 03:49:24;;;;;;;;;;;;;;;8.54;52.94434;101839.4;;;;-81
2022/04/20 03:54:24;;;;;;;;;;;;;;;8.52;52.80859;101838.5;;;;-80
2022/04/20 03:59:24;;;;;;;;;;;;;;;8.45;52.82129;101844.1;;;;-80
2022/04/20 04:04:24;;;;;;;;;;;;;;;8.41;52.7959;101847.5;;;;-83
2022/04/20 04:09:24;;;;;;;;;;;;;;;8.37;52.75684;101850;;;;-82
2022/04/20 04:14:27;;;;;;;;;;;;;;;8.32;52.7168;101850.7;;;;-82
2022/04/20 04:17:36;;;;;;;4;1.8;;;;;;;;;;;;;-81
2022/04/20 04:19:24;;;;;;;;;;;;;;;8.27;52.97852;101856.4;;;;-82
2022/04/20 04:24:40;;;;;;;;;;;;;;;8.25;52.9873;101861;;;;-82
2022/04/20 04:29:24;;;;;;;;;;;;;;;8.21;52.95996;101864.6;;;;-83
2022/04/20 04:34:24;;;;;;;;;;;;;;;8.17;53.08789;101864.6;;;;-81
2022/04/20 04:39:28;;;;;;;;;;;;;;;8.13;52.97266;101870.3;;;;-82
2022/04/20 04:44:24;;;;;;;;;;;;;;;8.12;53.11426;101867.6;;;;-83
2022/04/20 04:49:24;;;;;;;;;;;;;;;8.11;52.98047;101866.7;;;;-82
2022/04/20 04:54:24;;;;;;;;;;;;;;;8.07;53.15332;101872.6;;;;-82
2022/04/20 04:59:24;;;;;;;;;;;;;;;8.07;53.21973;101871.5;;;;-81
2022/04/20 05:04:25;;;;;;;;;;;;;;;8.04;53.11621;101873.9;;;;-81
2022/04/20 05:09:25;;;;;;;;;;;;;;;8.05;53.15137;101873.2;;;;-80
2022/04/20 05:14:24;;;;;;;;;;;;;;;8.05;53.19531;101870.4;;;;-82
2022/04/20 05:17:40;;;;;;;3.8;2;;;;;;;;;;;;;-82
2022/04/20 05:19:24;;;;;;;;;;;;;;;8.09;53.2998;101871.6;;;;-75
2022/04/20 05:24:24;;;;;;;;;;;;;;;8.08;53.3877;101877.2;;;;-75
2022/04/20 05:29:27;;;;;;;;;;;;;;;8.11;53.85742;101886.2;;;;-75
2022/04/20 05:34:26;;;;;;;;;;;;;;;8.16;53.45313;101890.1;;;;-74
2022/04/20 05:44:24;;;;;;;;;;;;;;;8.26;53.4209;101900.1;;;;-77
2022/04/20 05:47:38;;;;;;;5.9;2.3;;;;;;;;;;;;;-76
2022/04/20 05:49:24;;;;;;;;;;;;;;;8.48;53.9375;101912.7;;;;-75
2022/04/20 05:54:25;;;;;;;;;;;;;;;8.99;52.58789;101903.7;;;;-75
2022/04/20 05:59:41;;;;;;;;;;;;;;;9.57;51.46777;101903.3;;;;-77
2022/04/20 06:04:25;;;;;;;;;;;;;;;10.07;50.5;101906.5;;;;-75
2022/04/20 06:09:24;;;;;;;;;;;;;;;10.51;49.85938;101898.8;;;;-75
2022/04/20 06:14:24;;;;;;;;;;;;;;;10.87;49.27539;101900.4;;;;-75
2022/04/20 06:17:38;;;;;;;5.1;2.1;;;;;;;;;;;;;-75
2022/04/20 06:19:24;;;;;;;;;;;;;;;11.22;48.85645;101901.2;;;;-74
2022/04/20 06:24:24;;;;;;;;;;;;;;;11.57;48.26855;101899.4;;;;-75
2022/04/20 06:29:24;;;;;;;;;;;;;;;11.91;47.67969;101892.8;;;;-75
2022/04/20 06:34:24;;;;;;;;;;;;;;;12.28;46.9668;101896.7;;;;-74
2022/04/20 06:39:24;;;;;;;;;;;;;;;12.59;46.50684;101901.2;;;;-75
2022/04/20 06:44:24;;;;;;;;;;;;;;;12.91;45.82031;101897.7;;;;-74
2022/04/20 06:47:39;;;;;;;5;2.2;;;;;;;;;;;;;-75
2022/04/20 06:49:24;;;;;;;;;;;;;;;13.27;45.3877;101898.4;;;;-75
2022/04/20 06:59:24;;;;;;;;;;;;;;;13.85;44.5791;101901.4;;;;-75
2022/04/20 07:04:24;;;;;;;;;;;;;;;14.09;44.1416;101896.5;;;;-74
2022/04/20 07:09:24;;;;;;;;;;;;;;;14.42;43.79102;101900.8;;;;-76
2022/04/20 07:14:25;;;;;;;;;;;;;;;14.73;43.43848;101906.2;;;;-74
2022/04/20 07:17:41;;;;;;;4.3;2.2;;;;;;;;;;;;;-75
2022/04/20 07:19:27;;;;;;;;;;;;;;;15;43.20508;101910.6;;;;-75
2022/04/20 07:24:24;;;;;;;;;;;;;;;15.26;42.79004;101916.2;;;;-74
2022/04/20 07:29:25;;;;;;;;;;;;;;;15.52;42.81445;101924.1;;;;-75
2022/04/20 07:34:24;;;;;;;;;;;;;;;15.78;42.7041;101919.4;;;;-82
2022/04/20 07:39:25;;;;;;;;;;;;;;;16.07;42.50586;101923.6;;;;-81
2022/04/20 07:44:24;;;;;;;;;;;;;;;16.39;42.38867;101916.8;;;;-83
2022/04/20 07:47:43;;;;;;;4.2;2.2;;;;;;;;;;;;;-81
2022/04/20 07:54:29;;;;;;;;;;;;;;;16.93;41.99805;101919.9;;;;-84
2022/04/20 07:59:28;;;;;;;;;;;;;;;17.24;41.77734;101921.1;;;;-82
2022/04/20 08:04:24;;;;;;;;;;;;;;;17.46;41.40039;101928.5;;;;-81
2022/04/20 08:09:24;;;;;;;;;;;;;;;17.71;41.27539;101925.5;;;;-84
2022/04/20 08:14:24;;;;;;;;;;;;;;;18.02;41.31641;101920.3;;;;-84
2022/04/20 08:17:44;;;;;;;5.3;2.7;;;;;;;;;;;;;-83
2022/04/20 08:19:25;;;;;;;;;;;;;;;18.3;40.95605;101927.3;;;;-82
2022/04/20 08:24:24;;;;;;;;;;;;;;;18.58;40.62793;101929.8;;;;-83
2022/04/20 08:29:24;;;;;;;;;;;;;;;18.83;40.26172;101941.6;;;;-84
2022/04/20 08:34:24;;;;;;;;;;;;;;;19.08;39.88574;101940.2;;;;-83
2022/04/20 08:39:25;;;;;;;;;;;;;;;19.26;39.82129;101943.5;;;;-82
2022/04/20 08:44:30;;;;;;;;;;;;;;;19.45;39.53027;101946.9;;;;-83
2022/04/20 08:47:47;;;;;;;5.8;3.3;;;;;;;;;;;;;-81
2022/04/20 08:49:24;;;;;;;;;;;;;;;19.65;39.00977;101948.2;;;;-84
2022/04/20 08:54:24;;;;;;;;;;;;;;;19.84;38.62695;101940.2;;;;-81
2022/04/20 08:59:24;;;;;;;;;;;;;;;20.08;38.38477;101941.6;;;;-82
2022/04/20 09:04:25;;;;;;;;;;;;;;;20.25;38.26172;101939.1;;;;-83
2022/04/20 09:09:29;;;;;;;;;;;;;;;20.4;37.78223;101938.9;;;;-82
2022/04/20 09:14:24;;;;;;;;;;;;;;;20.59;37.38574;101934.3;;;;-81
2022/04/20 09:17:49;;;;;;;5.5;3.1;;;;;;;;;;;;;-81
2022/04/20 09:19:26;;;;;;;;;;;;;;;20.78;37.01172;101929.1;;;;-83
2022/04/20 09:24:27;;;;;;;;;;;;;;;20.94;36.7041;101929.3;;;;-83
2022/04/20 09:29:24;;;;;;;;;;;;;;;21.1;36.49805;101927.3;;;;-82
2022/04/20 09:34:35;;;;;;;;;;;;;;;21.33;36.19434;101923.3;;;;-81
2022/04/20 09:39:25;;;;;;;;;;;;;;;21.54;35.91309;101923;;;;-82
2022/04/20 09:44:24;;;;;;;;;;;;;;;21.74;35.36621;101920.7;;;;-83
2022/04/20 09:49:24;;;;;;;;;;;;;;;21.9;35.28711;101919.8;;;;-83
2022/04/20 09:54:33;;;;;;;;;;;;;;;22.06;35.06934;101910;;;;-82
2022/04/20 09:59:24;;;;;;;;;;;;;;;22.19;34.95313;101910.6;;;;-85
2022/04/20 10:04:24;;;;;;;;;;;;;;;22.43;34.50977;101914.4;;;;-83
2022/04/20 10:09:26;;;;;;;;;;;;;;;22.64;34.38867;101905.5;;;;-83
2022/04/20 10:17:57;;;;;;;5.8;2.5;;;;;;;;;;;;;-84
2022/04/20 10:19:29;;;;;;;;;;;;;;;23.19;33.65723;101896;;;;-84
2022/04/20 10:24:28;;;;;;;;;;;;;;;23.51;33.4502;101895.5;;;;-83
2022/04/20 10:29:30;;;;;;;;;;;;;;;23.7;32.49316;101888.4;;;;-83
2022/04/20 10:34:29;;;;;;;;;;;;;;;23.88;32.55273;101881.8;;;;-84
2022/04/20 10:39:26;;;;;;;;;;;;;;;24.12;32.61719;101879.7;;;;-85
2022/04/20 10:44:24;;;;;;;;;;;;;;;24.34;31.26563;101875.2;;;;-82
2022/04/20 10:47:59;;;;;;;3.4;2;;;;;;;;;;;;;-84
2022/04/20 10:49:40;;;;;;;;;;;;;;;24.48;31.62305;101872.7;;;;-84
2022/04/20 10:54:47;;;;;;;;;;;;;;;24.65;30.92871;101869.9;;;;-83
2022/04/20 10:59:24;;;;;;;;;;;;;;;24.81;30.86914;101870.5;;;;-81
2022/04/20 11:04:37;;;;;;;;;;;;;;;25;30.01172;101863.9;;;;-84
2022/04/20 11:09:37;;;;;;;;;;;;;;;25.12;29.39355;101858;;;;-83
2022/04/20 11:19:34;;;;;;;;;;;;;;;25.34;29.55859;101844.9;;;;-84
2022/04/20 11:24:29;;;;;;;;;;;;;;;25.5;28.8252;101841.3;;;;-82
2022/04/20 11:29:25;;;;;;;;;;;;;;;25.49;28.5459;101829.1;;;;-76
2022/04/20 11:34:26;;;;;;;;;;;;;;;25.43;28.72852;101820.9;;;;-77
2022/04/20 11:39:25;;;;;;;;;;;;;;;25.39;28.39941;101814.7;;;;-77
2022/04/20 11:44:28;;;;;;;;;;;;;;;25.46;28.19531;101815.8;;;;-75
2022/04/20 11:48:11;;;;;;;2.4;1.4;;;;;;;;;;;;;-75
2022/04/20 11:49:24;;;;;;;;;;;;;;;25.52;27.94434;101805.8;;;;-76
2022/04/20 11:54:27;;;;;;;;;;;;;;;25.55;28.52734;101798;;;;-77
2022/04/20 11:59:25;;;;;;;;;;;;;;;25.57;27.65625;101797.3;;;;-75
2022/04/20 12:04:25;;;;;;;;;;;;;;;25.57;27.98145;101796;;;;-73
2022/04/20 12:09:28;;;;;;;;;;;;;;;25.64;28.35742;101786.5;;;;-74
2022/04/20 12:14:24;;;;;;;;;;;;;;;25.66;28.15039;101779;;;;-75
2022/04/20 12:18:11;;;;;;;2.8;1.6;;;;;;;;;;;;;-76
2022/04/20 12:19:24;;;;;;;;;;;;;;;25.73;27.07227;101778.6;;;;-77
2022/04/20 12:24:31;;;;;;;;;;;;;;;25.68;27.13965;101773.5;;;;-78
2022/04/20 12:29:28;;;;;;;;;;;;;;;25.58;27.05176;101770.6;;;;-77
2022/04/20 12:34:25;;;;;;;;;;;;;;;25.44;27.03125;101774.1;;;;-76
2022/04/20 12:39:34;;;;;;;;;;;;;;;25.57;26.99316;101774.5;;;;-77
2022/04/20 12:44:35;;;;;;;;;;;;;;;25.71;27.4082;101767.4;;;;-76
2022/04/20 12:48:14;;;;;;;2.8;1.6;;;;;;;;;;;;;-77
2022/04/20 12:49:29;;;;;;;;;;;;;;;25.8;27.30957;101761.6;;;;-76
2022/04/20 12:54:29;;;;;;;;;;;;;;;25.8;26.36719;101763.3;;;;-74
2022/04/20 13:04:24;;;;;;;;;;;;;;;25.86;27.05664;101759.8;;;;-78
2022/04/20 13:09:24;;;;;;;;;;;;;;;25.97;27.0293;101752.5;;;;-77
2022/04/20 13:14:24;;;;;;;;;;;;;;;26.18;26.68066;101749.6;;;;-77
2022/04/20 13:18:26;;;;;;;4.3;1.5;;;;;;;;;;;;;-76
2022/04/20 13:19:26;;;;;;;;;;;;;;;26.33;26.95703;101730.8;;;;-77
2022/04/20 13:29:27;;;;;;;;;;;;;;;26.52;26.63086;101721.1;;;;-75
2022/04/20 13:34:26;;;;;;;;;;;;;;;26.63;27.13867;101721.7;;;;-75
2022/04/20 13:39:26;;;;;;;;;;;;;;;26.79;26.87988;101725.8;;;;-77
2022/04/20 13:44:28;;;;;;;;;;;;;;;26.92;26.56152;101717.3;;;;-76
2022/04/20 13:48:22;;;;;;;3.5;1.4;;;;;;;;;;;;;-77
2022/04/20 13:49:25;;;;;;;;;;;;;;;26.98;26.41309;101726.3;;;;-76
2022/04/20 13:54:24;;;;;;;;;;;;;;;27.01;26.96387;101722.7;;;;-75
2022/04/20 13:59:24;;;;;;;;;;;;;;;27.07;26.31348;101716.9;;;;-77
2022/04/20 14:04:25;;;;;;;;;;;;;;;27.14;26.16504;101709.6;;;;-77
2022/04/20 14:09:24;;;;;;;;;;;;;;;27.18;26.22559;101707.5;;;;-75
2022/04/20 14:14:24;;;;;;;;;;;;;;;27.23;25.46973;101702.8;;;;-78
2022/04/20 14:18:25;;;;;;;3.1;1.6;;;;;;;;;;;;;-77
2022/04/20 14:19:24;;;;;;;;;;;;;;;27.05;26.19531;101689.8;;;;-75
2022/04/20 14:24:24;;;;;;;;;;;;;;;27.03;26.64941;101692.7;;;;-79
2022/04/20 14:34:24;;;;;;;;;;;;;;;26.74;26.06055;101677.9;;;;-76
2022/04/20 14:39:24;;;;;;;;;;;;;;;26.77;25.49121;101664.6;;;;-75
2022/04/20 14:44:24;;;;;;;;;;;;;;;26.78;25.89941;101666;;;;-75
2022/04/20 14:48:30;;;;;;;2.7;1.4;;;;;;;;;;;;;-77
2022/04/20 14:49:24;;;;;;;;;;;;;;;26.75;26.86621;101656.1;;;;-76
2022/04/20 14:54:24;;;;;;;;;;;;;;;26.73;26.31641;101651;;;;-77
2022/04/20 14:59:24;;;;;;;;;;;;;;;26.71;26.11719;101650.1;;;;-76
2022/04/20 15:04:24;;;;;;;;;;;;;;;26.69;26.02246;101650;;;;-77
2022/04/20 15:09:26;;;;;;;;;;;;;;;26.6;26.13379;101650.1;;;;-76
2022/04/20 15:14:24;;;;;;;;;;;;;;;26.53;25.9082;101645.6;;;;-77
2022/04/20 15:18:35;;;;;;;2.4;1.5;;;;;;;;;;;;;-77
2022/04/20 15:19:24;;;;;;;;;;;;;;;26.33;25.81543;101634.1;;;;-76
2022/04/20 15:24:24;;;;;;;;;;;;;;;26.15;25.86328;101627.8;;;;-77
2022/04/20 15:29:26;;;;;;;;;;;;;;;25.93;25.85059;101616.3;;;;-77
2022/04/20 15:34:24;;;;;;;;;;;;;;;25.84;26.17188;101627;;;;-78
2022/04/20 15:39:26;;;;;;;;;;;;;;;25.69;26.09277;101624.8;;;;-76
2022/04/20 15:44:24;;;;;;;;;;;;;;;25.56;26.49219;101627.3;;;;-76
2022/04/20 15:49:02;;;;;;;2.5;1.6;;;;;;;;;;;;;-77
2022/04/20 15:49:27;;;;;;;;;;;;;;;25.47;26.12695;101622;;;;-78
2022/04/20 15:54:24;;;;;;;;;;;;;;;25.33;26.5957;101615.8;;;;-75
2022/04/20 16:04:32;;;;;;;;;;;;;;;24.92;26.7793;101615.8;;;;-77
2022/04/20 16:09:24;;;;;;;;;;;;;;;24.81;26.76172;101609.9;;;;-77
2022/04/20 16:14:24;;;;;;;;;;;;;;;24.65;26.83301;101606.1;;;;-83
2022/04/20 16:18:42;;;;;;;3;1.5;;;;;;;;;;;;;-80
2022/04/20 16:19:24;;;;;;;;;;;;;;;24.52;26.80176;101609.4;;;;-82
2022/04/20 16:24:25;;;;;;;;;;;;;;;24.35;26.89648;101608.8;;;;-83
2022/04/20 16:29:24;;;;;;;;;;;;;;;24.18;26.99121;101610.2;;;;-82
2022/04/20 16:34:25;;;;;;;;;;;;;;;24.01;27.09668;101608.6;;;;-81
2022/04/20 16:39:26;;;;;;;;;;;;;;;23.86;27.28418;101604.6;;;;-84
2022/04/20 16:44:24;;;;;;;;;;;;;;;23.64;27.67578;101590.9;;;;-83
2022/04/20 16:48:45;;;;;;;3;1.5;;;;;;;;;;;;;-83
2022/04/20 16:49:24;;;;;;;;;;;;;;;23.47;27.69922;101591.8;;;;-84
2022/04/20 16:54:26;;;;;;;;;;;;;;;23.24;28.02148;101592.8;;;;-82
2022/04/20 16:59:31;;;;;;;;;;;;;;;23.05;28.31055;101600.4;;;;-82
2022/04/20 17:04:24;;;;;;;;;;;;;;;22.85;28.65527;101599.7;;;;-82
2022/04/20 17:09:25;;;;;;;;;;;;;;;22.61;28.92871;101589.3;;;;-82
2022/04/20 17:14:25;;;;;;;;;;;;;;;22.38;29.70996;101590.2;;;;-84
2022/04/20 17:18:50;;;;;;;5.7;1.8;;;;;;;;;;;;;-83
2022/04/20 17:19:25;;;;;;;;;;;;;;;22.18;30.35352;101588.4;;;;-84
2022/04/20 17:29:24;;;;;;;;;;;;;;;21.62;31.41016;101592.7;;;;-82
2022/04/20 17:34:24;;;;;;;;;;;;;;;21.27;31.77637;101587.3;;;;-79
2022/04/20 17:39:26;;;;;;;;;;;;;;;20.61;32.92285;101589;;;;-82
2022/04/20 17:44:26;;;;;;;;;;;;;;;19.58;35.52637;101591.8;;;;-77
2022/04/20 17:48:53;;;;;;;7;3.3;;;;;;;;;;;;;-82
2022/04/20 17:49:25;;;;;;;;;;;;;;;18.99;36.31348;101595.2;;;;-79
2022/04/20 17:54:26;;;;;;;;;;;;;;;19.21;35.26758;101588.3;;;;-83
2022/04/20 17:59:25;;;;;;;;;;;;;;;19.18;35.00293;101595;;;;-83
2022/04/20 18:04:24;;;;;;;;;;;;;;;18.96;35.09961;101601.8;;;;-82
2022/04/20 18:09:25;;;;;;;;;;;;;;;18.73;35.53809;101607.1;;;;-81
2022/04/20 18:14:27;;;;;;;;;;;;;;;18.46;35.71094;101611.6;;;;-82
2022/04/20 18:18:57;;;;;;;5.6;3.3;;;;;;;;;;;;;-82
2022/04/20 18:19:24;;;;;;;;;;;;;;;18.15;36.18848;101606.5;;;;-82
2022/04/20 18:24:24;;;;;;;;;;;;;;;17.85;36.6084;101607.3;;;;-76
2022/04/20 18:29:26;;;;;;;;;;;;;;;17.57;37.10938;101614.6;;;;-76
2022/04/20 18:34:24;;;;;;;;;;;;;;;17.24;38.05859;101614.9;;;;-76
2022/04/20 18:39:24;;;;;;;;;;;;;;;17.01;38.00488;101618;;;;-78
2022/04/20 18:44:24;;;;;;;;;;;;;;;16.8;38.54492;101621.9;;;;-77
2022/04/20 18:48:59;;;;;;;6.3;3.6;;;;;;;;;;;;;-75
2022/04/20 18:49:24;;;;;;;;;;;;;;;16.57;38.81934;101630.3;;;;-75
2022/04/20 18:59:24;;;;;;;;;;;;;;;16.07;40;101641.5;;;;-76
2022/04/20 19:09:24;;;;;;;;;;;;;;;15.64;40.69727;101645.9;;;;-76
2022/04/20 19:14:24;;;;;;;;;;;;;;;15.41;41.58203;101645.3;;;;-75
2022/04/20 19:19:00;;;;;;;8.1;4.1;;;;;;;;;;;;;-76
2022/04/20 19:19:24;;;;;;;;;;;;;;;15.23;41.63281;101656.6;;;;-76
2022/04/20 19:24:24;;;;;;;;;;;;;;;15.04;42.04492;101661.7;;;;-77
2022/04/20 19:29:24;;;;;;;;;;;;;;;14.84;42.5791;101671.1;;;;-76
2022/04/20 19:34:24;;;;;;;;;;;;;;;14.66;43.65723;101668.1;;;;-75
2022/04/20 19:39:24;;;;;;;;;;;;;;;14.46;44.20215;101671.9;;;;-76
2022/04/20 19:44:24;;;;;;;;;;;;;;;14.3;44.1748;101671.2;;;;-74
2022/04/20 19:49:03;;;;;;;7.7;4.7;;;;;;;;;;;;;-76
2022/04/20 19:49:24;;;;;;;;;;;;;;;14.15;45.41016;101669.6;;;;-77
2022/04/20 19:54:24;;;;;;;;;;;;;;;14;45.12402;101672.4;;;;-77
2022/04/20 19:59:28;;;;;;;;;;;;;;;13.88;45.40527;101674.6;;;;-77
2022/04/20 20:04:24;;;;;;;;;;;;;;;13.76;45.69629;101673.8;;;;-75
2022/04/20 20:09:24;;;;;;;;;;;;;;;13.62;46.16602;101671.3;;;;-77
2022/04/20 20:14:26;;;;;;;;;;;;;;;13.5;46.34375;101669.3;;;;-75
2022/04/20 20:19:03;;;;;;;7.7;4.2;;;;;;;;;;;;;-77
2022/04/20 20:19:24;;;;;;;;;;;;;;;13.39;46.69336;101676.3;;;;-78
2022/04/20 20:34:24;;;;;;;;;;;;;;;13.04;47.54297;101674.3;;;;-77
2022/04/20 20:39:25;;;;;;;;;;;;;;;12.94;47.6123;101676;;;;-76
2022/04/20 20:44:24;;;;;;;;;;;;;;;12.84;47.9043;101676.4;;;;-78
2022/04/20 20:54:24;;;;;;;;;;;;;;;12.65;47.92871;101676.3;;;;-77
2022/04/20 20:59:24;;;;;;;;;;;;;;;12.55;48.21973;101674.8;;;;-77
2022/04/20 21:04:26;;;;;;;;;;;;;;;12.47;48.44727;101667.3;;;;-76
2022/04/20 21:09:24;;;;;;;;;;;;;;;12.36;48.71582;101664.5;;;;-77
2022/04/20 21:14:26;;;;;;;;;;;;;;;12.29;49.29102;101669.2;;;;-78
2022/04/20 21:19:06;;;;;;;8.4;4;;;;;;;;;;;;;-76
2022/04/20 21:19:24;;;;;;;;;;;;;;;12.21;48.98926;101676.8;;;;-77
2022/04/20 21:24:24;;;;;;;;;;;;;;;12.13;49.63086;101678.6;;;;-76
2022/04/20 21:29:24;;;;;;;;;;;;;;;12.07;49.26563;101675;;;;-75
2022/04/20 21:34:26;;;;;;;;;;;;;;;12;49.85156;101671.8;;;;-76
2022/04/20 21:39:24;;;;;;;;;;;;;;;11.94;49.84375;101670.4;;;;-76
2022/04/20 21:44:24;;;;;;;;;;;;;;;11.86;50.89941;101670.8;;;;-77
2022/04/20 21:49:07;;;;;;;7.1;3.7;;;;;;;;;;;;;-76
2022/04/20 21:49:24;;;;;;;;;;;;;;;11.79;50.67871;101667.3;;;;-78
2022/04/20 21:54:24;;;;;;;;;;;;;;;11.72;50.49023;101669.7;;;;-76
2022/04/20 21:59:25;;;;;;;;;;;;;;;11.65;50.65137;101669.7;;;;-76
2022/04/20 22:09:25;;;;;;;;;;;;;;;11.53;51.19727;101673;;;;-77
2022/04/20 22:14:25;;;;;;;;;;;;;;;11.45;51.26563;101677.3;;;;-75
2022/04/20 22:19:09;;;;;;;7;3.3;;;;;;;;;;;;;-76
2022/04/20 22:19:26;;;;;;;;;;;;;;;11.41;51.4834;101675.7;;;;-76
2022/04/20 22:24:24;;;;;;;;;;;;;;;11.36;51.45508;101673.5;;;;-75
2022/04/20 22:29:24;;;;;;;;;;;;;;;11.31;51.13672;101670.3;;;;-76
2022/04/20 22:34:25;;;;;;;;;;;;;;;11.28;51.12207;101671.3;;;;-76
2022/04/20 22:39:24;;;;;;;;;;;;;;;11.21;51.65039;101671.9;;;;-76
2022/04/20 22:44:26;;;;;;;;;;;;;;;11.16;51.97852;101672.3;;;;-75
2022/04/20 22:49:13;;;;;;;5.9;3.3;;;;;;;;;;;;;-75
2022/04/20 22:49:25;;;;;;;;;;;;;;;11.1;52.11914;101674.8;;;;-76
2022/04/20 22:54:26;;;;;;;;;;;;;;;11.06;51.4209;101670.2;;;;-75
2022/04/20 22:59:23;;;;;;;;;;;;;;;11.03;51.19336;101669;;;;-77
2022/04/20 23:04:23;;;;;;;;;;;;;;;10.96;51.36328;101658.7;;;;-76
2022/04/20 23:19:11;;;;;;;6;3.1;;;;;;;;;;;;;-79
2022/04/20 23:19:29;;;;;;;;;;;;;;;10.79;52.21484;101654;;;;-77
2022/04/20 23:28:29;;;;;;;;;;;;;;;10.75;52.85742;101656.8;;;;-75
2022/04/20 23:29:23;;;;;;;;;;;;;;;10.66;52.18848;101652.2;;;;-78
2022/04/20 23:34:24;;;;;;;;;;;;;;;10.7;51.91309;101657.7;;;;-76
2022/04/20 23:39:24;;;;;;;;;;;;;;;10.63;52.59766;101655.9;;;;-77
2022/04/20 23:44:24;;;;;;;;;;;;;;;10.57;52.73535;101656.2;;;;-76
2022/04/20 23:49:14;;;;;;;7.1;3.3;;;;;;;;;;;;;-76
2022/04/20 23:49:24;;;;;;;;;;;;;;;10.54;52.48535;101646.7;;;;-78
2022/04/20 23:54:25;;;;;;;;;;;;;;;10.49;52.95898;101643.3;;;;-77
2022/04/20 23:59:23;;;;;;;;;;;;;;;10.46;52.63281;101640.8;;;;-76
